Main page
METAR-TAF:

METAR-TAF

Airports :

Niederstetten Air Base

Niederstetten, Germany

latitude: 49-24N, longitude: 009-58E, elevation: 468 m

Current weather observation

The report was made 46 minutes ago, at 16:20 UTC
Wind 5 kt from the South
Temperature 3°C
Humidity 65%
Pressure 1016 hPa
Visibility 10 km or more
Few clouds at a height of 2500 ft
Broken clouds at a height of 10000 ft

METAR: ETHN 281620Z 18005KT 9999 FEW025 BKN100 03/M03 Q1016 BLU

Time: 18:06 (17:06 UTC)

Forecast

The report was made 6 hours and 6 minutes ago, at 11:00 UTC
Forecast valid from 28 at 12 UTC to 28 at 21 UTC
Wind 12 kt from the West
Visibility 10 km or more
Broken clouds at a height of 4000 ft
Temporary
from 28 at 12 UTC to 28 at 15 UTC
Wind 12 kt from the West
Visibility: 1100 m
Broken clouds at a height of 600 ft

TAF: ETHN 281100Z 2812/2821 27012KT 9999 NSW BKN040 TEMPO 2812/2815 27012KT 9999 NSW BKN006 CANCEL 1100

Weather observations and forecasts of more than 4000 airports (METAR and TAF reports).

The available stations are represented by yellow and red dots on the map.

Hover mouse over dot to see the name of the station.

Then click to see weather observations and forecasts.

To change the map : click on the green buttons with a black cross to zoom in, on the green button with a dash to zoom out, or on the green arrows for adjacent maps.


METAR-TAF: